createdAt,value
2023-02-15T00:01:59.530Z,43.90
2023-02-15T00:04:47.905Z,41.90
2023-02-15T00:07:19.086Z,40.50
2023-02-15T00:09:48.446Z,42.17
2023-02-15T00:12:19.060Z,39.73
2023-02-15T00:14:47.266Z,41.77
2023-02-15T00:17:16.091Z,43.80
2023-02-15T00:19:45.059Z,43.37
2023-02-15T00:22:15.691Z,47.23
2023-02-15T00:24:44.745Z,50.87
2023-02-15T00:27:16.232Z,45.37
2023-02-15T00:29:45.768Z,44.33
2023-02-15T00:32:14.095Z,47.63
2023-02-15T00:34:42.427Z,49.00
2023-02-15T00:37:11.079Z,42.63
2023-02-15T00:39:41.948Z,44.83
2023-02-15T00:42:11.088Z,51.97
2023-02-15T00:44:39.901Z,45.43
2023-02-15T00:47:11.698Z,47.70
2023-02-15T00:49:40.094Z,48.13
2023-02-15T00:52:12.283Z,50.73
2023-02-15T00:54:40.733Z,49.73
2023-02-15T00:57:11.124Z,46.83
2023-02-15T00:59:39.335Z,46.33
2023-02-15T01:02:10.093Z,41.70
2023-02-15T01:04:38.928Z,44.20
2023-02-15T01:07:08.218Z,43.33
2023-02-15T01:09:36.928Z,44.97
2023-02-15T01:12:07.850Z,43.90
2023-02-15T01:14:36.927Z,46.07
2023-02-15T01:17:07.000Z,47.13
2023-02-15T01:19:38.938Z,50.97
2023-02-15T01:22:08.460Z,44.53
2023-02-15T01:24:37.918Z,50.17
2023-02-15T01:27:06.861Z,49.47
2023-02-15T01:29:35.726Z,52.33
2023-02-15T01:32:04.769Z,48.40
2023-02-15T01:34:33.147Z,50.33
2023-02-15T01:37:04.248Z,54.60
2023-02-15T01:39:32.385Z,51.30
2023-02-15T01:42:03.543Z,51.73
2023-02-15T01:44:59.412Z,51.27
2023-02-15T01:47:35.680Z,48.37
2023-02-15T01:50:14.283Z,48.63
2023-02-15T01:52:51.083Z,46.40
2023-02-15T01:55:23.671Z,48.23
2023-02-15T01:57:54.312Z,48.43
2023-02-15T02:00:24.167Z,49.77
2023-02-15T02:02:55.967Z,48.00
2023-02-15T02:05:26.952Z,54.43
2023-02-15T02:08:03.019Z,52.03
2023-02-15T02:10:33.015Z,48.13
2023-02-15T02:13:08.169Z,48.73
2023-02-15T02:15:47.100Z,51.63
2023-02-15T02:18:25.942Z,46.97
2023-02-15T02:21:20.151Z,47.33
2023-02-15T02:24:04.934Z,45.00
2023-02-15T02:26:55.387Z,43.50
2023-02-15T02:29:57.897Z,46.73
2023-02-15T02:32:53.082Z,49.00
2023-02-15T02:35:28.687Z,47.53
2023-02-15T02:38:05.976Z,48.13
2023-02-15T02:40:45.110Z,46.40
2023-02-15T02:43:20.403Z,47.43
2023-02-15T02:45:59.516Z,44.67
2023-02-15T02:48:32.954Z,45.50
2023-02-15T02:51:06.367Z,50.13
2023-02-15T02:53:35.841Z,44.43
2023-02-15T02:56:09.208Z,44.70
2023-02-15T02:58:42.039Z,45.23
2023-02-15T03:01:16.132Z,44.17
2023-02-15T03:03:48.669Z,44.67
2023-02-15T03:06:24.744Z,41.97
2023-02-15T03:08:57.413Z,48.30
2023-02-15T03:11:26.135Z,44.90
2023-02-15T03:13:58.358Z,46.00
2023-02-15T03:16:28.158Z,45.33
2023-02-15T03:19:02.973Z,45.07
2023-02-15T03:21:36.934Z,48.97
2023-02-15T03:24:11.746Z,42.13
2023-02-15T03:26:45.122Z,46.67
2023-02-15T03:29:14.594Z,44.10
2023-02-15T03:31:47.225Z,50.50
2023-02-15T03:34:17.481Z,51.33
2023-02-15T03:36:55.402Z,46.93
2023-02-15T03:39:29.459Z,44.40
2023-02-15T03:42:02.105Z,45.73
2023-02-15T03:44:32.985Z,49.23
2023-02-15T03:47:06.840Z,46.33
2023-02-15T03:49:46.165Z,49.30
2023-02-15T03:52:17.171Z,44.10
2023-02-15T03:54:47.996Z,43.93
2023-02-15T03:57:37.437Z,43.80
2023-02-15T04:00:33.301Z,45.20
2023-02-15T04:03:14.675Z,47.57
2023-02-15T04:05:47.204Z,40.33
2023-02-15T04:08:15.959Z,46.67
2023-02-15T04:10:53.157Z,46.87
2023-02-15T04:13:21.984Z,44.20
2023-02-15T04:16:06.862Z,47.90
2023-02-15T04:18:59.994Z,45.03
2023-02-15T04:21:49.737Z,46.37
2023-02-15T04:24:40.008Z,45.03
2023-02-15T04:27:12.260Z,41.80
2023-02-15T04:29:40.385Z,41.80
2023-02-15T04:32:11.736Z,42.90
2023-02-15T04:34:39.992Z,40.73
2023-02-15T04:37:10.199Z,43.80
2023-02-15T04:39:39.510Z,43.90
2023-02-15T04:42:08.134Z,40.37
2023-02-15T04:44:38.556Z,44.53
2023-02-15T04:47:07.151Z,40.00
2023-02-15T04:49:36.029Z,43.97
2023-02-15T04:52:07.502Z,43.80
2023-02-15T04:54:37.992Z,45.00
2023-02-15T04:57:07.314Z,39.50
2023-02-15T04:59:35.499Z,36.60
2023-02-15T05:02:05.147Z,33.73
2023-02-15T05:04:35.153Z,34.60
2023-02-15T05:07:03.536Z,41.37
2023-02-15T05:09:31.718Z,36.13
2023-02-15T05:12:02.732Z,35.73
2023-02-15T05:14:31.053Z,35.60
2023-02-15T05:17:04.313Z,36.33
2023-02-15T05:19:33.025Z,37.33
2023-02-15T05:22:03.686Z,34.47
2023-02-15T05:24:50.002Z,36.10
2023-02-15T05:27:37.875Z,38.03
2023-02-15T05:30:14.270Z,32.90
2023-02-15T05:32:43.174Z,33.03
2023-02-15T05:35:16.264Z,40.33
2023-02-15T05:37:44.599Z,36.73
2023-02-15T05:40:13.648Z,37.00
2023-02-15T05:42:43.558Z,39.33
2023-02-15T05:45:11.812Z,38.03
2023-02-15T05:47:39.927Z,43.23
2023-02-15T05:50:09.716Z,41.20
2023-02-15T05:52:38.076Z,42.83
2023-02-15T05:55:10.249Z,40.33
2023-02-15T05:57:38.477Z,39.03
2023-02-15T06:00:11.954Z,28.13
2023-02-15T06:02:40.610Z,35.50
2023-02-15T06:05:10.232Z,40.43
2023-02-15T06:07:39.689Z,42.17
2023-02-15T06:10:09.288Z,42.77
2023-02-15T06:12:38.200Z,39.93
2023-02-15T06:15:08.488Z,43.20
2023-02-15T06:17:36.861Z,40.70
2023-02-15T06:20:07.430Z,41.10
2023-02-15T06:22:35.730Z,39.60
2023-02-15T06:25:10.941Z,36.00
2023-02-15T06:27:43.753Z,38.73
2023-02-15T06:30:15.461Z,36.10
2023-02-15T06:32:43.763Z,38.57
2023-02-15T06:35:12.578Z,38.47
2023-02-15T06:37:43.477Z,37.23
2023-02-15T06:40:12.197Z,40.17
2023-02-15T06:42:40.505Z,37.47
2023-02-15T06:45:10.408Z,36.30
2023-02-15T06:47:39.914Z,33.07
2023-02-15T06:50:11.685Z,38.00
2023-02-15T06:52:40.038Z,38.40
2023-02-15T06:55:08.734Z,40.40
2023-02-15T06:57:39.324Z,39.57
2023-02-15T07:00:09.196Z,32.27
2023-02-15T07:02:42.373Z,33.80
2023-02-15T07:05:10.901Z,32.83
2023-02-15T07:07:40.206Z,38.50
2023-02-15T07:10:09.194Z,43.20
2023-02-15T07:12:42.316Z,37.87
2023-02-15T07:15:10.971Z,36.80
2023-02-15T07:17:40.245Z,33.27
2023-02-15T07:20:14.306Z,33.90
2023-02-15T07:22:43.899Z,34.43
2023-02-15T07:25:16.338Z,33.07
2023-02-15T07:27:45.877Z,35.40
2023-02-15T07:30:16.578Z,32.53
2023-02-15T07:33:05.439Z,32.13
2023-02-15T07:35:35.937Z,29.57
2023-02-15T07:38:06.044Z,37.40
2023-02-15T07:40:35.302Z,32.97
2023-02-15T07:43:03.452Z,34.83
2023-02-15T07:45:32.241Z,35.57
2023-02-15T07:48:03.078Z,31.50
2023-02-15T07:50:36.758Z,32.13
2023-02-15T07:53:05.233Z,27.67
2023-02-15T07:55:34.256Z,26.80
2023-02-15T07:58:02.518Z,30.83
2023-02-15T08:00:31.603Z,32.63
2023-02-15T08:03:18.132Z,32.93
2023-02-15T08:05:48.235Z,34.00
2023-02-15T08:08:30.788Z,33.37
2023-02-15T08:11:21.847Z,32.20
2023-02-15T08:13:59.981Z,32.87
2023-02-15T08:16:32.286Z,31.43
2023-02-15T08:19:05.482Z,31.80
2023-02-15T08:21:36.814Z,31.33
2023-02-15T08:24:06.693Z,31.80
2023-02-15T08:26:36.225Z,28.23
2023-02-15T08:29:06.092Z,28.60
2023-02-15T08:31:38.752Z,33.50
2023-02-15T08:34:08.099Z,30.77
2023-02-15T08:36:41.491Z,32.67
2023-02-15T08:39:10.085Z,32.73
2023-02-15T08:41:40.352Z,33.33
2023-02-15T08:44:11.215Z,27.57
2023-02-15T08:46:42.607Z,28.93
2023-02-15T08:49:15.879Z,26.40
2023-02-15T08:51:49.644Z,25.87
2023-02-15T08:54:19.780Z,29.83
2023-02-15T08:56:48.298Z,28.60
2023-02-15T08:59:18.903Z,28.97
2023-02-15T09:01:48.002Z,31.90
2023-02-15T09:04:16.849Z,33.70
2023-02-15T09:06:49.510Z,31.00
2023-02-15T09:09:18.675Z,32.77
2023-02-15T09:11:49.331Z,35.30
2023-02-15T09:14:21.093Z,45.43
2023-02-15T09:16:52.710Z,35.27
2023-02-15T09:19:22.342Z,37.07
2023-02-15T09:21:53.831Z,33.87
2023-02-15T09:24:22.095Z,34.23
2023-02-15T09:26:51.272Z,35.33
2023-02-15T09:29:21.768Z,36.33
2023-02-15T09:31:51.789Z,37.97
2023-02-15T09:34:22.177Z,36.60
2023-02-15T09:36:55.284Z,37.53
2023-02-15T09:39:28.644Z,36.77
2023-02-15T09:42:48.330Z,39.27
2023-02-15T09:45:33.943Z,43.80
2023-02-15T09:48:34.096Z,39.73
2023-02-15T09:51:25.207Z,38.83
2023-02-15T09:54:14.991Z,37.83
2023-02-15T09:56:51.431Z,42.87
2023-02-15T09:59:30.134Z,34.80
2023-02-15T10:02:18.961Z,33.63
2023-02-15T10:05:08.375Z,31.83
2023-02-15T10:08:05.657Z,35.70
2023-02-15T10:10:42.395Z,31.13
2023-02-15T10:13:28.763Z,26.20
2023-02-15T10:16:10.627Z,26.77
2023-02-15T10:18:50.755Z,27.83
2023-02-15T10:21:26.993Z,30.13
2023-02-15T10:24:23.047Z,28.63
2023-02-15T10:26:52.692Z,26.20
2023-02-15T10:29:32.125Z,25.57
2023-02-15T10:32:10.586Z,28.23
2023-02-15T10:34:41.224Z,23.97
2023-02-15T10:37:46.728Z,24.33
2023-02-15T10:40:26.584Z,27.17
2023-02-15T10:43:22.839Z,25.57
2023-02-15T10:45:58.914Z,26.67
2023-02-15T10:48:56.737Z,32.10
2023-02-15T10:51:38.962Z,24.73
2023-02-15T10:54:16.175Z,25.13
2023-02-15T10:56:54.601Z,26.30
2023-02-15T10:59:53.907Z,28.37
2023-02-15T11:02:30.166Z,24.00
2023-02-15T11:05:18.824Z,26.53
2023-02-15T11:07:51.132Z,26.17
2023-02-15T11:10:30.688Z,26.67
2023-02-15T11:13:00.299Z,29.33
2023-02-15T11:15:35.706Z,32.07
2023-02-15T11:18:13.618Z,28.53
2023-02-15T11:20:55.389Z,33.80
2023-02-15T11:23:26.385Z,31.23
2023-02-15T11:26:03.008Z,28.67
2023-02-15T11:28:37.191Z,31.97
2023-02-15T11:31:17.973Z,32.07
2023-02-15T11:33:52.450Z,29.17
2023-02-15T11:36:25.526Z,30.73
2023-02-15T11:39:01.481Z,28.30
2023-02-15T11:41:34.479Z,29.47
2023-02-15T11:44:08.522Z,27.13
2023-02-15T11:46:40.527Z,28.60
2023-02-15T11:49:22.560Z,30.37
2023-02-15T11:51:52.694Z,29.73
2023-02-15T11:54:23.994Z,24.63
2023-02-15T11:56:54.387Z,24.33
2023-02-15T11:59:31.507Z,27.47
2023-02-15T12:02:02.716Z,25.20
2023-02-15T12:04:35.512Z,27.73
2023-02-15T12:07:13.455Z,25.43
2023-02-15T12:09:50.315Z,28.63
2023-02-15T12:12:29.198Z,28.07
2023-02-15T12:15:00.323Z,28.83
2023-02-15T12:17:31.696Z,29.47
2023-02-15T12:20:05.624Z,25.60
2023-02-15T12:22:37.289Z,26.27
2023-02-15T12:25:31.522Z,26.70
2023-02-15T12:28:00.191Z,27.33
2023-02-15T12:30:36.217Z,28.07
2023-02-15T12:33:17.819Z,28.43
2023-02-15T12:35:50.326Z,29.83
2023-02-15T12:38:26.894Z,31.60
2023-02-15T12:41:04.527Z,34.27
2023-02-15T12:43:35.329Z,29.40
2023-02-15T12:46:23.383Z,30.47
2023-02-15T12:49:09.284Z,33.03
2023-02-15T12:51:46.482Z,34.50
2023-02-15T12:54:32.927Z,31.17
2023-02-15T12:57:14.422Z,30.73
2023-02-15T12:59:50.862Z,31.03
2023-02-15T13:02:29.333Z,35.70
2023-02-15T13:05:06.406Z,34.33
2023-02-15T13:07:35.003Z,37.27
2023-02-15T13:10:04.353Z,39.20
2023-02-15T13:12:35.224Z,34.70
2023-02-15T13:15:05.948Z,36.80
2023-02-15T13:17:35.833Z,38.60
2023-02-15T13:20:10.774Z,35.87
2023-02-15T13:22:45.010Z,36.40
2023-02-15T13:25:19.718Z,37.40
2023-02-15T13:27:53.382Z,35.60
2023-02-15T13:30:32.260Z,37.97
2023-02-15T13:33:06.395Z,37.80
2023-02-15T13:35:44.108Z,38.17
2023-02-15T13:38:24.201Z,38.90
2023-02-15T13:41:02.060Z,34.23
2023-02-15T13:43:39.621Z,38.37
2023-02-15T13:46:28.465Z,40.10
2023-02-15T13:49:11.104Z,41.33
2023-02-15T13:51:46.447Z,38.03
2023-02-15T13:54:34.815Z,40.93
2023-02-15T13:57:22.589Z,41.17
2023-02-15T14:00:05.273Z,38.93
2023-02-15T14:03:07.893Z,38.00
2023-02-15T14:06:06.397Z,38.50
2023-02-15T14:08:48.819Z,41.13
2023-02-15T14:11:32.256Z,41.97
2023-02-15T14:14:41.084Z,41.03
2023-02-15T14:17:24.198Z,40.13
2023-02-15T14:19:57.204Z,37.67
2023-02-15T14:22:33.827Z,37.47
2023-02-15T14:25:30.007Z,39.33
2023-02-15T14:28:05.687Z,40.97
2023-02-15T14:30:37.810Z,37.33
2023-02-15T14:33:09.999Z,36.37
2023-02-15T14:35:39.352Z,36.93
2023-02-15T14:38:16.451Z,37.90
2023-02-15T14:41:03.948Z,36.87
2023-02-15T14:43:43.264Z,33.37
2023-02-15T14:46:19.686Z,35.23
2023-02-15T14:48:50.355Z,37.17
2023-02-15T14:51:57.901Z,35.67
2023-02-15T14:55:01.223Z,38.33
2023-02-15T14:57:37.089Z,32.33
2023-02-15T15:00:41.562Z,38.87
2023-02-15T15:03:21.150Z,36.33
2023-02-15T15:05:53.699Z,36.70
2023-02-15T15:08:31.049Z,41.50
2023-02-15T15:11:44.215Z,40.30
2023-02-15T15:14:44.424Z,40.77
2023-02-15T15:17:14.602Z,37.77
2023-02-15T15:20:14.535Z,44.73
2023-02-15T15:22:44.260Z,42.77
2023-02-15T15:25:36.639Z,41.97
2023-02-15T15:28:09.583Z,44.40
2023-02-15T15:31:04.829Z,44.13
2023-02-15T15:34:04.563Z,46.37
2023-02-15T15:37:04.758Z,44.03
2023-02-15T15:40:22.605Z,47.50
2023-02-15T15:42:55.509Z,46.07
2023-02-15T15:46:08.714Z,46.10
2023-02-15T15:48:39.194Z,44.40
2023-02-15T15:51:16.724Z,45.23
2023-02-15T15:53:49.497Z,49.47
2023-02-15T15:56:24.651Z,43.40
2023-02-15T15:58:56.217Z,46.97
2023-02-15T16:01:32.789Z,48.63
2023-02-15T16:04:01.983Z,42.90
2023-02-15T16:06:35.861Z,46.63
2023-02-15T16:09:20.222Z,46.37
2023-02-15T16:11:50.424Z,43.07
2023-02-15T16:14:25.392Z,44.53
2023-02-15T16:16:58.407Z,41.40
2023-02-15T16:19:31.572Z,40.33
2023-02-15T16:22:04.627Z,46.57
2023-02-15T16:25:09.993Z,36.23
2023-02-15T16:27:41.779Z,38.17
2023-02-15T16:30:21.993Z,40.53
2023-02-15T16:33:06.481Z,37.53
2023-02-15T16:35:35.630Z,38.17
2023-02-15T16:38:04.883Z,37.23
2023-02-15T16:40:45.401Z,34.03
2023-02-15T16:43:19.370Z,35.73
2023-02-15T16:45:51.303Z,37.03
2023-02-15T16:48:27.535Z,33.17
2023-02-15T16:50:59.905Z,35.20
2023-02-15T16:53:31.233Z,35.37
2023-02-15T16:56:07.067Z,30.60
2023-02-15T16:58:43.651Z,36.27
2023-02-15T17:01:15.061Z,34.23
2023-02-15T17:03:45.155Z,34.47
2023-02-15T17:06:24.407Z,34.43
2023-02-15T17:08:53.241Z,37.47
2023-02-15T17:11:23.285Z,39.30
2023-02-15T17:14:22.262Z,39.67
2023-02-15T17:16:57.403Z,36.40
2023-02-15T17:19:29.325Z,42.87
2023-02-15T17:22:05.132Z,39.10
2023-02-15T17:24:43.280Z,41.20
2023-02-15T17:27:18.552Z,38.23
2023-02-15T17:29:53.200Z,35.67
2023-02-15T17:32:24.431Z,35.17
2023-02-15T17:35:19.415Z,37.60
2023-02-15T17:37:55.502Z,36.40
2023-02-15T17:40:26.532Z,37.37
2023-02-15T17:42:55.480Z,40.37
2023-02-15T17:45:27.202Z,40.00
2023-02-15T17:47:55.562Z,40.00
2023-02-15T17:50:27.497Z,40.53
2023-02-15T17:52:57.398Z,38.30
2023-02-15T17:55:43.155Z,43.20
2023-02-15T17:58:13.340Z,42.17
2023-02-15T18:01:02.393Z,39.40
2023-02-15T18:03:59.360Z,40.90
2023-02-15T18:06:49.347Z,38.27
2023-02-15T18:09:37.876Z,37.00
2023-02-15T18:12:23.602Z,38.57
2023-02-15T18:14:54.279Z,38.67
2023-02-15T18:17:31.324Z,39.77
2023-02-15T18:20:01.481Z,40.07
2023-02-15T18:22:31.246Z,41.67
2023-02-15T18:24:59.792Z,36.97
2023-02-15T18:27:30.308Z,38.63
2023-02-15T18:29:58.543Z,43.50
2023-02-15T18:32:36.699Z,38.47
2023-02-15T18:35:07.300Z,39.07
2023-02-15T18:37:37.288Z,41.73
2023-02-15T18:40:06.180Z,43.53
2023-02-15T18:42:36.160Z,38.90
2023-02-15T18:45:16.408Z,35.23
2023-02-15T18:47:44.789Z,40.73
2023-02-15T18:50:15.615Z,36.20
2023-02-15T18:52:47.466Z,38.97
2023-02-15T18:55:22.548Z,40.57
2023-02-15T18:57:53.639Z,39.53
2023-02-15T19:00:25.257Z,44.63
2023-02-15T19:02:57.341Z,44.83
2023-02-15T19:05:28.121Z,44.47
2023-02-15T19:08:00.188Z,42.50
2023-02-15T19:10:30.684Z,45.00
2023-02-15T19:12:59.065Z,45.13
2023-02-15T19:15:30.496Z,45.07
2023-02-15T19:17:59.148Z,41.40
2023-02-15T19:20:29.783Z,44.17
2023-02-15T19:23:03.259Z,44.83
2023-02-15T19:25:33.410Z,41.50
2023-02-15T19:28:10.412Z,46.10
2023-02-15T19:30:39.505Z,45.60
2023-02-15T19:33:07.859Z,46.27
2023-02-15T19:35:37.224Z,46.13
2023-02-15T19:38:13.669Z,45.63
2023-02-15T19:40:41.933Z,45.33
2023-02-15T19:43:18.352Z,44.23
2023-02-15T19:45:47.042Z,44.77
2023-02-15T19:48:15.875Z,46.37
2023-02-15T19:50:47.423Z,47.47
2023-02-15T19:53:23.600Z,48.60
2023-02-15T19:55:52.948Z,48.40
2023-02-15T19:58:21.239Z,45.53
2023-02-15T20:00:54.465Z,45.60
2023-02-15T20:03:22.689Z,47.47
2023-02-15T20:05:51.908Z,48.83
2023-02-15T20:08:23.812Z,47.30
2023-02-15T20:10:52.184Z,48.63
2023-02-15T20:13:24.126Z,48.17
2023-02-15T20:15:52.950Z,49.07
2023-02-15T20:18:22.679Z,51.47
2023-02-15T20:20:53.244Z,50.17
2023-02-15T20:23:30.450Z,46.30
2023-02-15T20:26:01.303Z,46.40
2023-02-15T20:28:31.597Z,50.57
2023-02-15T20:31:03.921Z,51.23
2023-02-15T20:33:32.260Z,47.57
2023-02-15T20:36:01.282Z,48.20
2023-02-15T20:38:33.327Z,46.53
2023-02-15T20:41:23.087Z,53.03
2023-02-15T20:43:51.263Z,51.63
2023-02-15T20:46:22.609Z,52.37
2023-02-15T20:48:50.806Z,49.10
2023-02-15T20:51:21.125Z,46.77
2023-02-15T20:53:50.755Z,48.50
2023-02-15T20:56:21.609Z,45.93
2023-02-15T20:58:53.445Z,56.73
2023-02-15T21:01:22.560Z,60.93
2023-02-15T21:03:51.444Z,52.37
2023-02-15T21:06:20.018Z,51.93
2023-02-15T21:08:48.358Z,53.93
2023-02-15T21:11:21.125Z,48.63
2023-02-15T21:13:51.340Z,46.30
2023-02-15T21:16:19.857Z,46.07
2023-02-15T21:18:48.057Z,45.70
2023-02-15T21:21:26.263Z,46.80
2023-02-15T21:23:54.923Z,45.93
2023-02-15T21:26:24.765Z,48.73
2023-02-15T21:28:54.082Z,46.57
2023-02-15T21:31:25.237Z,45.97
2023-02-15T21:33:53.488Z,45.63
2023-02-15T21:36:25.577Z,45.70
2023-02-15T21:38:55.341Z,46.23
2023-02-15T21:41:42.987Z,43.23
2023-02-15T21:44:35.297Z,47.13
2023-02-15T21:47:24.199Z,46.07
2023-02-15T21:49:53.870Z,48.90
2023-02-15T21:52:24.057Z,46.83
2023-02-15T21:54:52.555Z,48.97
2023-02-15T21:57:22.573Z,47.03
2023-02-15T21:59:51.552Z,49.93
2023-02-15T22:02:31.637Z,45.33
2023-02-15T22:05:00.516Z,43.03
2023-02-15T22:07:29.365Z,45.80
2023-02-15T22:09:59.565Z,49.90
2023-02-15T22:12:29.518Z,47.73
2023-02-15T22:14:57.718Z,45.37
2023-02-15T22:17:29.322Z,46.83
2023-02-15T22:19:59.543Z,50.87
2023-02-15T22:22:30.146Z,46.60
2023-02-15T22:24:59.373Z,48.57
2023-02-15T22:27:34.269Z,44.00
2023-02-15T22:30:04.299Z,46.23
2023-02-15T22:32:34.045Z,47.37
2023-02-15T22:35:02.567Z,50.00
2023-02-15T22:37:31.505Z,48.17
2023-02-15T22:39:59.762Z,47.20
2023-02-15T22:42:29.761Z,51.40
2023-02-15T22:45:03.102Z,49.70
2023-02-15T22:47:32.400Z,52.10
2023-02-15T22:50:03.003Z,51.77
2023-02-15T22:52:31.501Z,48.17
2023-02-15T22:55:00.561Z,56.50
2023-02-15T22:57:32.515Z,53.70
2023-02-15T23:00:01.400Z,53.70
2023-02-15T23:02:29.854Z,54.07
2023-02-15T23:04:58.422Z,56.43
2023-02-15T23:07:27.528Z,54.37
2023-02-15T23:09:57.950Z,55.07
2023-02-15T23:12:53.760Z,55.87
2023-02-15T23:15:22.081Z,62.87
2023-02-15T23:17:50.214Z,59.37
2023-02-15T23:20:23.628Z,57.97
2023-02-15T23:22:52.245Z,60.63
2023-02-15T23:25:28.080Z,61.80
2023-02-15T23:27:59.384Z,60.33
2023-02-15T23:30:32.997Z,58.00
2023-02-15T23:33:01.493Z,64.00
2023-02-15T23:35:30.567Z,61.43
2023-02-15T23:37:59.396Z,58.37
2023-02-15T23:40:46.108Z,66.43
2023-02-15T23:43:23.389Z,63.03
2023-02-15T23:45:55.429Z,63.97
2023-02-15T23:48:32.371Z,66.57
2023-02-15T23:51:03.903Z,62.40
2023-02-15T23:53:32.974Z,68.20
2023-02-15T23:56:02.557Z,64.53
2023-02-15T23:58:39.378Z,65.40
